sensor_id;sensor_type;location;lat;lon;timestamp;temperature;humidity
79065;DHT22;68469;51.502;7.462;2023-03-23T00:02:05;20.20;67.70
79065;DHT22;68469;51.502;7.462;2023-03-23T00:04:31;20.20;67.70
79065;DHT22;68469;51.502;7.462;2023-03-23T00:06:56;20.20;67.90
79065;DHT22;68469;51.502;7.462;2023-03-23T00:09:22;20.20;67.50
79065;DHT22;68469;51.502;7.462;2023-03-23T00:11:50;20.20;67.60
79065;DHT22;68469;51.502;7.462;2023-03-23T00:14:16;20.20;67.80
79065;DHT22;68469;51.502;7.462;2023-03-23T00:16:47;20.20;67.70
79065;DHT22;68469;51.502;7.462;2023-03-23T00:19:14;20.20;67.70
79065;DHT22;68469;51.502;7.462;2023-03-23T00:21:41;20.20;67.50
79065;DHT22;68469;51.502;7.462;2023-03-23T00:24:15;20.20;67.70
79065;DHT22;68469;51.502;7.462;2023-03-23T00:26:42;20.20;67.50
79065;DHT22;68469;51.502;7.462;2023-03-23T00:29:16;20.20;67.50
79065;DHT22;68469;51.502;7.462;2023-03-23T00:31:43;20.10;67.70
79065;DHT22;68469;51.502;7.462;2023-03-23T00:34:16;20.20;67.90
79065;DHT22;68469;51.502;7.462;2023-03-23T00:36:48;20.10;67.30
79065;DHT22;68469;51.502;7.462;2023-03-23T00:39:14;20.20;67.50
79065;DHT22;68469;51.502;7.462;2023-03-23T00:41:42;20.10;67.80
79065;DHT22;68469;51.502;7.462;2023-03-23T00:44:08;20.10;67.20
79065;DHT22;68469;51.502;7.462;2023-03-23T00:46:34;20.10;67.50
79065;DHT22;68469;51.502;7.462;2023-03-23T00:49:13;20.10;67.40
79065;DHT22;68469;51.502;7.462;2023-03-23T00:51:40;20.10;67.50
79065;DHT22;68469;51.502;7.462;2023-03-23T00:54:06;20.20;67.70
79065;DHT22;68469;51.502;7.462;2023-03-23T00:56:33;20.20;67.50
79065;DHT22;68469;51.502;7.462;2023-03-23T00:58:58;20.10;67.40
79065;DHT22;68469;51.502;7.462;2023-03-23T01:01:24;20.20;67.50
79065;DHT22;68469;51.502;7.462;2023-03-23T01:03:50;20.10;67.40
79065;DHT22;68469;51.502;7.462;2023-03-23T01:06:15;20.10;67.60
79065;DHT22;68469;51.502;7.462;2023-03-23T01:08:41;20.10;67.50
79065;DHT22;68469;51.502;7.462;2023-03-23T01:11:13;20.10;67.60
79065;DHT22;68469;51.502;7.462;2023-03-23T01:13:39;20.10;67.30
79065;DHT22;68469;51.502;7.462;2023-03-23T01:16:06;20.10;67.70
79065;DHT22;68469;51.502;7.462;2023-03-23T01:18:32;20.10;67.20
79065;DHT22;68469;51.502;7.462;2023-03-23T01:20:57;20.10;67.30
79065;DHT22;68469;51.502;7.462;2023-03-23T01:23:23;20.10;67.40
79065;DHT22;68469;51.502;7.462;2023-03-23T01:25:48;20.10;67.40
79065;DHT22;68469;51.502;7.462;2023-03-23T01:28:14;20.10;67.50
79065;DHT22;68469;51.502;7.462;2023-03-23T01:30:41;20.10;67.30
79065;DHT22;68469;51.502;7.462;2023-03-23T01:33:06;20.10;67.20
79065;DHT22;68469;51.502;7.462;2023-03-23T01:35:32;20.10;67.40
79065;DHT22;68469;51.502;7.462;2023-03-23T01:37:58;20.10;67.20
79065;DHT22;68469;51.502;7.462;2023-03-23T01:40:26;20.10;67.30
79065;DHT22;68469;51.502;7.462;2023-03-23T01:42:52;20.10;67.10
79065;DHT22;68469;51.502;7.462;2023-03-23T01:45:22;20.10;67.50
79065;DHT22;68469;51.502;7.462;2023-03-23T01:48:17;20.10;67.20
79065;DHT22;68469;51.502;7.462;2023-03-23T01:50:51;20.10;67.00
79065;DHT22;68469;51.502;7.462;2023-03-23T01:53:19;20.10;67.30
79065;DHT22;68469;51.502;7.462;2023-03-23T01:55:46;20.10;67.60
79065;DHT22;68469;51.502;7.462;2023-03-23T01:58:18;20.10;67.50
79065;DHT22;68469;51.502;7.462;2023-03-23T02:00:44;20.10;68.20
79065;DHT22;68469;51.502;7.462;2023-03-23T02:03:11;20.10;67.50
79065;DHT22;68469;51.502;7.462;2023-03-23T02:05:41;20.10;67.40
79065;DHT22;68469;51.502;7.462;2023-03-23T02:08:08;20.10;66.90
79065;DHT22;68469;51.502;7.462;2023-03-23T02:10:36;20.10;67.40
79065;DHT22;68469;51.502;7.462;2023-03-23T02:13:06;20.10;67.00
79065;DHT22;68469;51.502;7.462;2023-03-23T02:15:49;20.10;67.40
79065;DHT22;68469;51.502;7.462;2023-03-23T02:18:40;20.10;67.20
79065;DHT22;68469;51.502;7.462;2023-03-23T02:29:46;20.10;67.40
79065;DHT22;68469;51.502;7.462;2023-03-23T02:35:30;20.10;67.10
79065;DHT22;68469;51.502;7.462;2023-03-23T02:38:15;20.10;67.50
79065;DHT22;68469;51.502;7.462;2023-03-23T02:40:49;20.10;67.60
79065;DHT22;68469;51.502;7.462;2023-03-23T02:43:18;20.10;67.20
79065;DHT22;68469;51.502;7.462;2023-03-23T02:45:46;20.10;67.40
79065;DHT22;68469;51.502;7.462;2023-03-23T02:48:14;20.10;67.40
79065;DHT22;68469;51.502;7.462;2023-03-23T02:50:44;20.10;67.50
79065;DHT22;68469;51.502;7.462;2023-03-23T02:53:13;20.10;67.60
79065;DHT22;68469;51.502;7.462;2023-03-23T02:55:41;20.10;67.50
79065;DHT22;68469;51.502;7.462;2023-03-23T02:58:09;20.10;67.40
79065;DHT22;68469;51.502;7.462;2023-03-23T03:00:35;20.10;67.40
79065;DHT22;68469;51.502;7.462;2023-03-23T03:03:04;20.10;67.30
79065;DHT22;68469;51.502;7.462;2023-03-23T03:08:35;20.10;67.40
79065;DHT22;68469;51.502;7.462;2023-03-23T03:11:10;20.10;67.60
79065;DHT22;68469;51.502;7.462;2023-03-23T03:16:35;20.10;67.00
79065;DHT22;68469;51.502;7.462;2023-03-23T03:21:36;20.10;67.40
79065;DHT22;68469;51.502;7.462;2023-03-23T03:24:04;20.10;67.50
79065;DHT22;68469;51.502;7.462;2023-03-23T03:26:34;20.10;67.50
79065;DHT22;68469;51.502;7.462;2023-03-23T03:29:01;20.10;67.50
79065;DHT22;68469;51.502;7.462;2023-03-23T03:31:30;20.00;67.30
79065;DHT22;68469;51.502;7.462;2023-03-23T03:33:57;20.00;67.40
79065;DHT22;68469;51.502;7.462;2023-03-23T03:36:28;20.00;67.40
79065;DHT22;68469;51.502;7.462;2023-03-23T03:39:03;20.00;67.50
79065;DHT22;68469;51.502;7.462;2023-03-23T03:41:31;20.10;67.50
79065;DHT22;68469;51.502;7.462;2023-03-23T03:43:56;20.00;67.40
79065;DHT22;68469;51.502;7.462;2023-03-23T03:46:22;20.00;67.50
79065;DHT22;68469;51.502;7.462;2023-03-23T03:48:52;20.00;67.20
79065;DHT22;68469;51.502;7.462;2023-03-23T03:51:18;20.10;67.40
79065;DHT22;68469;51.502;7.462;2023-03-23T03:53:43;20.00;67.30
79065;DHT22;68469;51.502;7.462;2023-03-23T03:56:09;20.00;67.40
79065;DHT22;68469;51.502;7.462;2023-03-23T03:58:34;20.00;67.50
79065;DHT22;68469;51.502;7.462;2023-03-23T04:01:02;20.00;67.40
79065;DHT22;68469;51.502;7.462;2023-03-23T04:03:27;20.00;67.50
79065;DHT22;68469;51.502;7.462;2023-03-23T04:05:54;20.00;68.10
79065;DHT22;68469;51.502;7.462;2023-03-23T04:08:22;20.00;67.40
79065;DHT22;68469;51.502;7.462;2023-03-23T04:10:48;20.00;67.40
79065;DHT22;68469;51.502;7.462;2023-03-23T04:13:14;20.00;67.40
79065;DHT22;68469;51.502;7.462;2023-03-23T04:15:40;20.00;67.40
79065;DHT22;68469;51.502;7.462;2023-03-23T04:18:06;20.00;67.30
79065;DHT22;68469;51.502;7.462;2023-03-23T04:20:32;20.00;67.30
79065;DHT22;68469;51.502;7.462;2023-03-23T04:22:57;20.00;67.30
79065;DHT22;68469;51.502;7.462;2023-03-23T04:25:25;20.00;67.40
79065;DHT22;68469;51.502;7.462;2023-03-23T04:27:52;20.00;67.30
79065;DHT22;68469;51.502;7.462;2023-03-23T04:30:22;20.00;67.40
79065;DHT22;68469;51.502;7.462;2023-03-23T04:32:49;20.00;67.30
79065;DHT22;68469;51.502;7.462;2023-03-23T04:35:17;20.00;68.00
79065;DHT22;68469;51.502;7.462;2023-03-23T04:37:42;20.00;67.40
79065;DHT22;68469;51.502;7.462;2023-03-23T04:40:09;20.00;67.30
79065;DHT22;68469;51.502;7.462;2023-03-23T04:42:38;20.00;67.20
79065;DHT22;68469;51.502;7.462;2023-03-23T04:45:05;20.00;67.30
79065;DHT22;68469;51.502;7.462;2023-03-23T04:47:34;20.00;67.30
79065;DHT22;68469;51.502;7.462;2023-03-23T04:50:09;20.00;67.10
79065;DHT22;68469;51.502;7.462;2023-03-23T04:52:36;20.00;67.30
79065;DHT22;68469;51.502;7.462;2023-03-23T04:55:04;20.00;67.10
79065;DHT22;68469;51.502;7.462;2023-03-23T04:57:31;20.00;67.30
79065;DHT22;68469;51.502;7.462;2023-03-23T04:59:57;20.00;67.30
79065;DHT22;68469;51.502;7.462;2023-03-23T05:02:22;20.00;67.40
79065;DHT22;68469;51.502;7.462;2023-03-23T05:04:48;20.00;67.40
79065;DHT22;68469;51.502;7.462;2023-03-23T05:07:14;20.00;67.20
79065;DHT22;68469;51.502;7.462;2023-03-23T05:09:40;20.00;67.10
79065;DHT22;68469;51.502;7.462;2023-03-23T05:12:08;20.00;67.20
79065;DHT22;68469;51.502;7.462;2023-03-23T05:14:34;20.00;67.30
79065;DHT22;68469;51.502;7.462;2023-03-23T05:17:00;19.90;67.00
79065;DHT22;68469;51.502;7.462;2023-03-23T05:19:25;20.00;67.30
79065;DHT22;68469;51.502;7.462;2023-03-23T05:21:51;20.00;67.20
79065;DHT22;68469;51.502;7.462;2023-03-23T05:24:17;20.00;67.10
79065;DHT22;68469;51.502;7.462;2023-03-23T05:26:43;20.00;67.20
79065;DHT22;68469;51.502;7.462;2023-03-23T05:29:09;20.00;66.80
79065;DHT22;68469;51.502;7.462;2023-03-23T05:31:36;20.00;67.20
79065;DHT22;68469;51.502;7.462;2023-03-23T05:34:02;20.00;67.20
79065;DHT22;68469;51.502;7.462;2023-03-23T05:36:28;20.00;67.20
79065;DHT22;68469;51.502;7.462;2023-03-23T05:38:54;20.00;67.30
79065;DHT22;68469;51.502;7.462;2023-03-23T05:41:20;20.00;67.30
79065;DHT22;68469;51.502;7.462;2023-03-23T05:43:46;20.00;67.20
79065;DHT22;68469;51.502;7.462;2023-03-23T05:46:11;20.10;66.80
79065;DHT22;68469;51.502;7.462;2023-03-23T05:48:37;20.10;65.40
79065;DHT22;68469;51.502;7.462;2023-03-23T05:51:03;20.00;66.80
79065;DHT22;68469;51.502;7.462;2023-03-23T05:53:29;20.00;67.00
79065;DHT22;68469;51.502;7.462;2023-03-23T05:56:00;20.00;65.50
79065;DHT22;68469;51.502;7.462;2023-03-23T05:58:26;20.10;67.10
79065;DHT22;68469;51.502;7.462;2023-03-23T06:00:51;20.00;65.30
79065;DHT22;68469;51.502;7.462;2023-03-23T06:03:17;20.00;64.90
79065;DHT22;68469;51.502;7.462;2023-03-23T06:05:43;20.10;64.70
79065;DHT22;68469;51.502;7.462;2023-03-23T06:08:10;20.00;65.30
79065;DHT22;68469;51.502;7.462;2023-03-23T06:10:36;20.10;64.80
79065;DHT22;68469;51.502;7.462;2023-03-23T06:13:03;20.00;65.10
79065;DHT22;68469;51.502;7.462;2023-03-23T06:15:29;20.00;65.20
79065;DHT22;68469;51.502;7.462;2023-03-23T06:18:03;20.00;65.10
79065;DHT22;68469;51.502;7.462;2023-03-23T06:20:29;20.00;64.10
79065;DHT22;68469;51.502;7.462;2023-03-23T06:22:54;20.00;64.80
79065;DHT22;68469;51.502;7.462;2023-03-23T06:25:21;20.00;65.00
79065;DHT22;68469;51.502;7.462;2023-03-23T06:27:47;20.00;65.10
79065;DHT22;68469;51.502;7.462;2023-03-23T06:30:14;20.00;63.90
79065;DHT22;68469;51.502;7.462;2023-03-23T06:32:42;20.00;64.10
79065;DHT22;68469;51.502;7.462;2023-03-23T06:35:09;20.00;63.70
79065;DHT22;68469;51.502;7.462;2023-03-23T06:37:36;20.00;64.70
79065;DHT22;68469;51.502;7.462;2023-03-23T06:40:03;20.00;61.50
79065;DHT22;68469;51.502;7.462;2023-03-23T06:42:32;20.10;63.70
79065;DHT22;68469;51.502;7.462;2023-03-23T06:44:58;20.00;64.70
79065;DHT22;68469;51.502;7.462;2023-03-23T06:47:26;20.00;64.80
79065;DHT22;68469;51.502;7.462;2023-03-23T06:49:52;20.00;63.20
79065;DHT22;68469;51.502;7.462;2023-03-23T06:52:17;20.00;64.30
79065;DHT22;68469;51.502;7.462;2023-03-23T06:54:43;20.00;64.90
79065;DHT22;68469;51.502;7.462;2023-03-23T06:57:09;20.00;62.80
79065;DHT22;68469;51.502;7.462;2023-03-23T06:59:34;20.00;63.50
79065;DHT22;68469;51.502;7.462;2023-03-23T07:02:00;20.00;64.60
79065;DHT22;68469;51.502;7.462;2023-03-23T07:04:26;20.00;65.20
79065;DHT22;68469;51.502;7.462;2023-03-23T07:06:52;19.90;65.00
79065;DHT22;68469;51.502;7.462;2023-03-23T07:09:18;19.90;64.40
79065;DHT22;68469;51.502;7.462;2023-03-23T07:11:43;20.00;64.20
79065;DHT22;68469;51.502;7.462;2023-03-23T07:14:09;20.00;64.60
79065;DHT22;68469;51.502;7.462;2023-03-23T07:16:35;19.90;64.00
79065;DHT22;68469;51.502;7.462;2023-03-23T07:19:01;20.00;64.10
79065;DHT22;68469;51.502;7.462;2023-03-23T07:21:26;19.90;64.90
79065;DHT22;68469;51.502;7.462;2023-03-23T07:23:52;20.00;64.50
79065;DHT22;68469;51.502;7.462;2023-03-23T07:26:17;19.90;64.60
79065;DHT22;68469;51.502;7.462;2023-03-23T07:28:44;20.00;64.20
79065;DHT22;68469;51.502;7.462;2023-03-23T07:31:11;20.00;64.40
79065;DHT22;68469;51.502;7.462;2023-03-23T07:33:36;19.90;64.30
79065;DHT22;68469;51.502;7.462;2023-03-23T07:36:03;20.00;64.40
79065;DHT22;68469;51.502;7.462;2023-03-23T07:38:29;20.00;64.20
79065;DHT22;68469;51.502;7.462;2023-03-23T07:40:55;20.10;63.50
79065;DHT22;68469;51.502;7.462;2023-03-23T07:43:22;20.10;63.30
79065;DHT22;68469;51.502;7.462;2023-03-23T07:45:48;20.10;63.30
79065;DHT22;68469;51.502;7.462;2023-03-23T07:48:13;20.10;63.10
79065;DHT22;68469;51.502;7.462;2023-03-23T07:50:39;20.20;62.90
79065;DHT22;68469;51.502;7.462;2023-03-23T07:53:05;20.10;62.10
79065;DHT22;68469;51.502;7.462;2023-03-23T07:55:31;20.10;61.40
79065;DHT22;68469;51.502;7.462;2023-03-23T07:57:57;20.00;61.80
79065;DHT22;68469;51.502;7.462;2023-03-23T08:00:23;20.10;61.60
79065;DHT22;68469;51.502;7.462;2023-03-23T08:02:52;20.00;60.30
79065;DHT22;68469;51.502;7.462;2023-03-23T08:05:18;20.00;61.30
79065;DHT22;68469;51.502;7.462;2023-03-23T08:07:46;20.10;62.00
79065;DHT22;68469;51.502;7.462;2023-03-23T08:10:13;20.00;61.40
79065;DHT22;68469;51.502;7.462;2023-03-23T08:14:26;20.20;62.50
79065;DHT22;68469;51.502;7.462;2023-03-23T08:16:53;20.20;60.80
79065;DHT22;68469;51.502;7.462;2023-03-23T08:19:21;20.20;60.90
79065;DHT22;68469;51.502;7.462;2023-03-23T08:21:47;20.20;59.90
79065;DHT22;68469;51.502;7.462;2023-03-23T08:24:13;20.20;60.30
79065;DHT22;68469;51.502;7.462;2023-03-23T08:26:39;20.20;59.70
79065;DHT22;68469;51.502;7.462;2023-03-23T08:29:05;20.20;59.20
79065;DHT22;68469;51.502;7.462;2023-03-23T08:31:31;20.20;58.70
79065;DHT22;68469;51.502;7.462;2023-03-23T08:34:00;20.10;58.10
79065;DHT22;68469;51.502;7.462;2023-03-23T08:36:26;20.10;59.70
79065;DHT22;68469;51.502;7.462;2023-03-23T08:38:52;20.10;59.80
79065;DHT22;68469;51.502;7.462;2023-03-23T08:41:19;20.20;60.50
79065;DHT22;68469;51.502;7.462;2023-03-23T08:43:44;20.20;60.80
79065;DHT22;68469;51.502;7.462;2023-03-23T08:46:10;20.20;60.20
79065;DHT22;68469;51.502;7.462;2023-03-23T08:48:36;20.20;60.00
79065;DHT22;68469;51.502;7.462;2023-03-23T08:51:04;20.20;59.40
79065;DHT22;68469;51.502;7.462;2023-03-23T08:53:30;20.20;59.40
79065;DHT22;68469;51.502;7.462;2023-03-23T08:56:02;20.20;59.20
79065;DHT22;68469;51.502;7.462;2023-03-23T08:58:27;20.20;59.70
79065;DHT22;68469;51.502;7.462;2023-03-23T09:00:54;20.40;61.00
79065;DHT22;68469;51.502;7.462;2023-03-23T09:03:20;20.60;60.70
79065;DHT22;68469;51.502;7.462;2023-03-23T09:05:45;20.70;60.10
79065;DHT22;68469;51.502;7.462;2023-03-23T09:08:11;20.70;60.50
79065;DHT22;68469;51.502;7.462;2023-03-23T09:10:38;20.70;60.80
79065;DHT22;68469;51.502;7.462;2023-03-23T09:13:04;20.70;60.60
79065;DHT22;68469;51.502;7.462;2023-03-23T09:15:30;20.70;60.40
79065;DHT22;68469;51.502;7.462;2023-03-23T09:17:57;20.70;60.30
79065;DHT22;68469;51.502;7.462;2023-03-23T09:20:26;20.60;60.20
79065;DHT22;68469;51.502;7.462;2023-03-23T09:22:54;20.60;60.10
79065;DHT22;68469;51.502;7.462;2023-03-23T09:25:22;20.60;60.00
79065;DHT22;68469;51.502;7.462;2023-03-23T09:27:52;20.60;60.20
79065;DHT22;68469;51.502;7.462;2023-03-23T09:30:19;20.60;60.00
79065;DHT22;68469;51.502;7.462;2023-03-23T09:32:46;20.60;60.00
79065;DHT22;68469;51.502;7.462;2023-03-23T09:35:14;20.60;60.00
79065;DHT22;68469;51.502;7.462;2023-03-23T09:37:42;20.60;60.00
79065;DHT22;68469;51.502;7.462;2023-03-23T09:40:15;20.50;60.00
79065;DHT22;68469;51.502;7.462;2023-03-23T09:45:15;20.50;60.00
79065;DHT22;68469;51.502;7.462;2023-03-23T09:50:34;20.50;60.20
79065;DHT22;68469;51.502;7.462;2023-03-23T09:53:08;20.40;60.10
79065;DHT22;68469;51.502;7.462;2023-03-23T09:55:36;20.50;60.10
79065;DHT22;68469;51.502;7.462;2023-03-23T09:58:24;20.40;60.30
79065;DHT22;68469;51.502;7.462;2023-03-23T10:01:15;20.40;60.30
79065;DHT22;68469;51.502;7.462;2023-03-23T10:03:43;20.40;60.40
79065;DHT22;68469;51.502;7.462;2023-03-23T10:06:11;20.40;60.50
79065;DHT22;68469;51.502;7.462;2023-03-23T10:08:41;20.40;60.40
79065;DHT22;68469;51.502;7.462;2023-03-23T10:16:59;20.40;60.50
79065;DHT22;68469;51.502;7.462;2023-03-23T10:19:33;20.40;60.50
79065;DHT22;68469;51.502;7.462;2023-03-23T10:22:08;20.40;60.70
79065;DHT22;68469;51.502;7.462;2023-03-23T10:24:49;20.40;60.60
79065;DHT22;68469;51.502;7.462;2023-03-23T10:27:19;20.40;60.60
79065;DHT22;68469;51.502;7.462;2023-03-23T10:29:52;20.40;60.60
79065;DHT22;68469;51.502;7.462;2023-03-23T10:32:36;20.40;60.70
79065;DHT22;68469;51.502;7.462;2023-03-23T10:35:06;20.40;60.60
79065;DHT22;68469;51.502;7.462;2023-03-23T10:37:36;20.40;60.60
79065;DHT22;68469;51.502;7.462;2023-03-23T10:40:06;20.40;60.60
79065;DHT22;68469;51.502;7.462;2023-03-23T10:42:36;20.40;60.90
79065;DHT22;68469;51.502;7.462;2023-03-23T10:45:24;20.40;60.60
79065;DHT22;68469;51.502;7.462;2023-03-23T10:48:19;20.40;60.20
79065;DHT22;68469;51.502;7.462;2023-03-23T10:50:44;20.30;60.00
79065;DHT22;68469;51.502;7.462;2023-03-23T10:53:21;20.30;59.90
79065;DHT22;68469;51.502;7.462;2023-03-23T10:55:48;20.30;59.80
79065;DHT22;68469;51.502;7.462;2023-03-23T10:58:31;20.30;59.80
79065;DHT22;68469;51.502;7.462;2023-03-23T11:01:02;20.30;59.80
79065;DHT22;68469;51.502;7.462;2023-03-23T11:03:50;20.30;59.80
79065;DHT22;68469;51.502;7.462;2023-03-23T11:06:29;20.30;59.90
79065;DHT22;68469;51.502;7.462;2023-03-23T11:09:01;20.30;59.80
79065;DHT22;68469;51.502;7.462;2023-03-23T11:11:29;20.30;59.80
79065;DHT22;68469;51.502;7.462;2023-03-23T11:14:25;20.30;59.70
79065;DHT22;68469;51.502;7.462;2023-03-23T11:16:57;20.20;59.60
79065;DHT22;68469;51.502;7.462;2023-03-23T11:19:26;20.30;59.70
79065;DHT22;68469;51.502;7.462;2023-03-23T11:21:54;20.30;59.60
79065;DHT22;68469;51.502;7.462;2023-03-23T11:24:25;20.20;59.80
79065;DHT22;68469;51.502;7.462;2023-03-23T11:26:52;20.20;59.80
79065;DHT22;68469;51.502;7.462;2023-03-23T11:29:24;20.20;59.90
79065;DHT22;68469;51.502;7.462;2023-03-23T11:31:53;20.20;59.90
79065;DHT22;68469;51.502;7.462;2023-03-23T11:34:34;20.30;60.10
79065;DHT22;68469;51.502;7.462;2023-03-23T11:37:39;20.20;60.10
79065;DHT22;68469;51.502;7.462;2023-03-23T11:45:19;20.30;60.50
79065;DHT22;68469;51.502;7.462;2023-03-23T11:50:23;20.30;60.50
79065;DHT22;68469;51.502;7.462;2023-03-23T11:58:13;20.30;61.10
79065;DHT22;68469;51.502;7.462;2023-03-23T12:00:55;20.30;60.70
79065;DHT22;68469;51.502;7.462;2023-03-23T12:06:05;20.40;61.00
79065;DHT22;68469;51.502;7.462;2023-03-23T12:08:49;20.30;61.20
79065;DHT22;68469;51.502;7.462;2023-03-23T12:14:13;20.40;61.60
79065;DHT22;68469;51.502;7.462;2023-03-23T12:22:19;20.50;61.40
79065;DHT22;68469;51.502;7.462;2023-03-23T12:36:34;20.50;61.70
79065;DHT22;68469;51.502;7.462;2023-03-23T12:45:02;20.40;61.90
79065;DHT22;68469;51.502;7.462;2023-03-23T12:53:08;20.40;61.90
79065;DHT22;68469;51.502;7.462;2023-03-23T12:55:45;20.40;62.00
79065;DHT22;68469;51.502;7.462;2023-03-23T12:58:15;20.40;62.10
79065;DHT22;68469;51.502;7.462;2023-03-23T13:03:25;20.40;62.10
79065;DHT22;68469;51.502;7.462;2023-03-23T13:05:57;20.40;62.00
79065;DHT22;68469;51.502;7.462;2023-03-23T13:08:47;20.40;62.70
79065;DHT22;68469;51.502;7.462;2023-03-23T13:11:20;20.40;62.00
79065;DHT22;68469;51.502;7.462;2023-03-23T13:13:54;20.30;62.10
79065;DHT22;68469;51.502;7.462;2023-03-23T13:16:53;20.40;62.10
79065;DHT22;68469;51.502;7.462;2023-03-23T13:19:34;20.40;62.10
79065;DHT22;68469;51.502;7.462;2023-03-23T13:22:24;20.30;62.00
79065;DHT22;68469;51.502;7.462;2023-03-23T13:24:58;20.30;62.00
79065;DHT22;68469;51.502;7.462;2023-03-23T13:27:26;20.30;62.00
79065;DHT22;68469;51.502;7.462;2023-03-23T13:29:58;20.40;62.10
79065;DHT22;68469;51.502;7.462;2023-03-23T13:32:38;20.40;62.60
79065;DHT22;68469;51.502;7.462;2023-03-23T13:35:12;20.30;62.00
79065;DHT22;68469;51.502;7.462;2023-03-23T13:37:44;20.30;62.00
79065;DHT22;68469;51.502;7.462;2023-03-23T13:42:58;20.30;62.00
79065;DHT22;68469;51.502;7.462;2023-03-23T13:48:19;20.30;61.90
79065;DHT22;68469;51.502;7.462;2023-03-23T13:50:58;20.40;61.90
79065;DHT22;68469;51.502;7.462;2023-03-23T13:53:28;20.30;61.80
79065;DHT22;68469;51.502;7.462;2023-03-23T13:58:43;20.40;61.90
79065;DHT22;68469;51.502;7.462;2023-03-23T14:03:40;20.40;61.90
79065;DHT22;68469;51.502;7.462;2023-03-23T14:06:14;20.40;61.90
79065;DHT22;68469;51.502;7.462;2023-03-23T14:08:43;20.40;62.10
79065;DHT22;68469;51.502;7.462;2023-03-23T14:16:21;20.30;61.90
79065;DHT22;68469;51.502;7.462;2023-03-23T14:19:00;20.30;61.90
79065;DHT22;68469;51.502;7.462;2023-03-23T14:24:03;20.30;62.00
79065;DHT22;68469;51.502;7.462;2023-03-23T14:26:29;20.30;62.10
79065;DHT22;68469;51.502;7.462;2023-03-23T14:28:59;20.40;62.00
79065;DHT22;68469;51.502;7.462;2023-03-23T14:31:26;20.40;62.10
79065;DHT22;68469;51.502;7.462;2023-03-23T14:33:54;20.40;62.00
79065;DHT22;68469;51.502;7.462;2023-03-23T14:36:26;20.40;62.00
79065;DHT22;68469;51.502;7.462;2023-03-23T14:39:06;20.30;62.00
79065;DHT22;68469;51.502;7.462;2023-03-23T14:41:34;20.30;62.00
79065;DHT22;68469;51.502;7.462;2023-03-23T14:44:02;20.30;62.00
79065;DHT22;68469;51.502;7.462;2023-03-23T14:46:30;20.30;61.90
79065;DHT22;68469;51.502;7.462;2023-03-23T14:49:00;20.30;62.00
79065;DHT22;68469;51.502;7.462;2023-03-23T14:51:26;20.30;62.00
79065;DHT22;68469;51.502;7.462;2023-03-23T14:53:53;20.30;62.00
79065;DHT22;68469;51.502;7.462;2023-03-23T14:56:20;20.30;62.00
79065;DHT22;68469;51.502;7.462;2023-03-23T14:58:50;20.30;61.90
79065;DHT22;68469;51.502;7.462;2023-03-23T15:01:27;20.30;62.00
79065;DHT22;68469;51.502;7.462;2023-03-23T15:04:01;20.30;61.90
79065;DHT22;68469;51.502;7.462;2023-03-23T15:06:31;20.30;62.00
79065;DHT22;68469;51.502;7.462;2023-03-23T15:09:01;20.30;62.00
79065;DHT22;68469;51.502;7.462;2023-03-23T15:11:31;20.30;62.00
79065;DHT22;68469;51.502;7.462;2023-03-23T15:13:59;20.30;62.10
79065;DHT22;68469;51.502;7.462;2023-03-23T15:16:32;20.30;61.90
79065;DHT22;68469;51.502;7.462;2023-03-23T15:19:04;20.30;62.00
79065;DHT22;68469;51.502;7.462;2023-03-23T15:21:36;20.30;62.00
79065;DHT22;68469;51.502;7.462;2023-03-23T15:24:34;20.30;62.10
79065;DHT22;68469;51.502;7.462;2023-03-23T15:29:54;20.30;62.00
79065;DHT22;68469;51.502;7.462;2023-03-23T15:32:25;20.30;62.00
79065;DHT22;68469;51.502;7.462;2023-03-23T15:34:52;20.30;62.00
79065;DHT22;68469;51.502;7.462;2023-03-23T15:37:23;20.30;62.00
79065;DHT22;68469;51.502;7.462;2023-03-23T15:39:50;20.30;61.90
79065;DHT22;68469;51.502;7.462;2023-03-23T15:42:29;20.30;62.00
79065;DHT22;68469;51.502;7.462;2023-03-23T15:45:12;20.30;62.10
79065;DHT22;68469;51.502;7.462;2023-03-23T15:47:48;20.30;62.10
79065;DHT22;68469;51.502;7.462;2023-03-23T15:52:40;20.30;62.20
79065;DHT22;68469;51.502;7.462;2023-03-23T15:57:45;20.30;62.20
79065;DHT22;68469;51.502;7.462;2023-03-23T16:00:11;20.30;62.20
79065;DHT22;68469;51.502;7.462;2023-03-23T16:02:37;20.30;62.20
79065;DHT22;68469;51.502;7.462;2023-03-23T16:05:03;20.30;62.20
79065;DHT22;68469;51.502;7.462;2023-03-23T16:07:29;20.30;62.20
79065;DHT22;68469;51.502;7.462;2023-03-23T16:09:55;20.30;62.10
79065;DHT22;68469;51.502;7.462;2023-03-23T16:12:21;20.20;62.10
79065;DHT22;68469;51.502;7.462;2023-03-23T16:14:46;20.30;62.20
79065;DHT22;68469;51.502;7.462;2023-03-23T16:17:17;20.30;62.20
79065;DHT22;68469;51.502;7.462;2023-03-23T16:19:43;20.30;62.30
79065;DHT22;68469;51.502;7.462;2023-03-23T16:22:09;20.30;62.20
79065;DHT22;68469;51.502;7.462;2023-03-23T16:24:34;20.30;62.20
79065;DHT22;68469;51.502;7.462;2023-03-23T16:27:00;20.30;62.20
79065;DHT22;68469;51.502;7.462;2023-03-23T16:29:25;20.30;62.20
79065;DHT22;68469;51.502;7.462;2023-03-23T16:31:52;20.30;62.20
79065;DHT22;68469;51.502;7.462;2023-03-23T16:34:17;20.30;62.20
79065;DHT22;68469;51.502;7.462;2023-03-23T16:36:43;20.30;62.30
79065;DHT22;68469;51.502;7.462;2023-03-23T16:39:10;20.20;62.20
79065;DHT22;68469;51.502;7.462;2023-03-23T16:41:36;20.20;62.20
79065;DHT22;68469;51.502;7.462;2023-03-23T16:44:02;20.20;62.10
79065;DHT22;68469;51.502;7.462;2023-03-23T16:46:28;20.30;62.20
79065;DHT22;68469;51.502;7.462;2023-03-23T16:48:54;20.20;62.20
79065;DHT22;68469;51.502;7.462;2023-03-23T16:51:20;20.20;62.20
79065;DHT22;68469;51.502;7.462;2023-03-23T16:53:46;20.20;62.80
79065;DHT22;68469;51.502;7.462;2023-03-23T16:56:11;20.20;62.10
79065;DHT22;68469;51.502;7.462;2023-03-23T16:58:37;20.20;62.20
79065;DHT22;68469;51.502;7.462;2023-03-23T17:01:03;20.20;62.20
79065;DHT22;68469;51.502;7.462;2023-03-23T17:03:30;20.20;62.20
79065;DHT22;68469;51.502;7.462;2023-03-23T17:05:56;20.20;62.20
79065;DHT22;68469;51.502;7.462;2023-03-23T17:08:23;20.20;62.30
79065;DHT22;68469;51.502;7.462;2023-03-23T17:10:49;20.20;62.30
79065;DHT22;68469;51.502;7.462;2023-03-23T17:13:15;20.20;62.30
79065;DHT22;68469;51.502;7.462;2023-03-23T17:15:42;20.20;62.30
79065;DHT22;68469;51.502;7.462;2023-03-23T17:18:08;20.20;62.20
79065;DHT22;68469;51.502;7.462;2023-03-23T17:20:34;20.20;62.30
79065;DHT22;68469;51.502;7.462;2023-03-23T17:23:00;20.30;62.40
79065;DHT22;68469;51.502;7.462;2023-03-23T17:25:26;20.20;62.40
79065;DHT22;68469;51.502;7.462;2023-03-23T17:27:54;20.20;62.30
79065;DHT22;68469;51.502;7.462;2023-03-23T17:30:20;20.30;62.40
79065;DHT22;68469;51.502;7.462;2023-03-23T17:32:46;20.30;62.30